Time;durP1;ratioP1;P1;durP2;ratioP2;P2;SDS_P1;SDS_P2;PMS_P1;PMS_P2;Temp;Humidity;BMP_temperature;BMP_pressure;BME280_temperature;BME280_humidity;BME280_pressure;Samples;Min_cycle;Max_cycle;Signal;HPM_P1;HPM_P2
2023/05/16 00:02:02;;;;;;;;;;;;;;;;;;5032134;28;19924;-61
2023/05/16 00:04:28;;;;;;;;;;;;;;;;;;5052705;28;19924;-61
2023/05/16 00:06:54;;;;;;;;;;;;;;;;;;5051521;28;19943;-61
2023/05/16 00:09:20;;;;;;;;;;;;;;;;;;5031784;28;20422;-61
2023/05/16 00:11:47;;;;;;;;;;;;;;;;;;5050480;28;20017;-62
2023/05/16 00:14:14;;;;;;;;;;;;;;;;;;5049118;28;20003;-60
2023/05/16 00:16:40;;;;;;;;;;;;;;;;;;5050436;28;20433;-60
2023/05/16 00:19:06;;;;;;;;;;;;;;;;;;5049836;28;20011;-60
2023/05/16 00:21:32;;;;;;;;;;;;;;;;;;5049752;28;20007;-61
2023/05/16 00:23:58;;;;;;;;;;;;;;;;;;5051403;28;19925;-61
2023/05/16 00:26:25;;;;;;;;;;;;;;;;;;5051660;28;19925;-61
2023/05/16 00:28:50;;;;;;;;;;;;;;;;;;5051450;28;19927;-62
2023/05/16 00:31:16;;;;;;;;;;;;;;;;;;5048185;28;20282;-61
2023/05/16 00:33:42;;;;;;;;;;;;;;;;;;5050722;28;19935;-61
2023/05/16 00:36:08;;;;;;;;;;;;;;;;;;5049579;28;19994;-62
2023/05/16 00:38:34;;;;;;;;;;;;;;;;;;5051656;28;20016;-61
2023/05/16 00:41:00;;;;;;;;;;;;;;;;;;5051668;28;19924;-61
2023/05/16 00:43:26;;;;;;;;;;;;;;;;;;5050162;28;19948;-61
2023/05/16 00:45:52;;;;;;;;;;;;;;;;;;5050658;28;19921;-61
2023/05/16 00:48:18;;;;;;;;;;;;;;;;;;5050307;28;19967;-61
2023/05/16 00:50:44;;;;;;;;;;;;;;;;;;5050921;28;19924;-61
2023/05/16 00:53:10;;;;;;;;;;;;;;;;;;5025787;28;20536;-61
2023/05/16 00:55:36;;;;;;;;;;;;;;;;;;5023019;28;19921;-61
2023/05/16 00:58:01;;;;;;;;;;;;;;;;;;5049196;28;19929;-61
2023/05/16 01:00:27;;;;;;;;;;;;;;;;;;5049657;28;19925;-61
2023/05/16 01:02:53;;;;;;;;;;;;;;;;;;5050720;28;19921;-61
2023/05/16 01:05:19;;;;;;;;;;;;;;;;;;5033224;28;19921;-61
2023/05/16 01:07:45;;;;;;;;;;;;;;;;;;5033433;28;20436;-61
2023/05/16 01:10:11;;;;;;;;;;;;;;;;;;5046979;28;19933;-61
2023/05/16 01:12:37;;;;;;;;;;;;;;;;;;5048564;28;19920;-61
2023/05/16 01:15:03;;;;;;;;;;;;;;;;;;5047661;28;19972;-61
2023/05/16 01:17:29;;;;;;;;;;;;;;;;;;5048487;28;19960;-60
2023/05/16 01:19:55;;;;;;;;;;;;;;;;;;5031819;28;20292;-60
2023/05/16 01:22:22;;;;;;;;;;;;;;;;;;5049645;28;19943;-60
2023/05/16 01:24:47;;;;;;;;;;;;;;;;;;5049681;28;19924;-60
2023/05/16 01:27:13;;;;;;;;;;;;;;;;;;5050073;28;19966;-61
2023/05/16 01:29:39;;;;;;;;;;;;;;;;;;5051198;28;19929;-61
2023/05/16 01:32:05;;;;;;;;;;;;;;;;;;5029930;28;19932;-61
2023/05/16 01:34:31;;;;;;;;;;;;;;;;;;5049621;28;19925;-61
2023/05/16 01:36:57;;;;;;;;;;;;;;;;;;5043969;28;19921;-61
2023/05/16 01:39:23;;;;;;;;;;;;;;;;;;5040677;28;19990;-61
2023/05/16 01:41:49;;;;;;;;;;;;;;;;;;5049572;28;19920;-61
2023/05/16 01:44:15;;;;;;;;;;;;;;;;;;5049727;28;19932;-60
2023/05/16 01:46:41;;;;;;;;;;;;;;;;;;5048569;28;20385;-61
2023/05/16 01:49:07;;;;;;;;;;;;;;;;;;5046719;28;19987;-61
2023/05/16 01:51:33;;;;;;;;;;;;;;;;;;5098137;22;19952;-61
2023/05/16 01:54:00;;;;;;;;;;;;;;;;;;5070734;28;19982;-61
2023/05/16 01:56:26;;;;;;;;;;;;;;;;;;5066855;28;19920;-61
2023/05/16 01:58:52;;;;;;;;;;;;;;;;;;5068563;28;19970;-61
2023/05/16 02:01:18;;;;;;;;;;;;;;;;;;5072497;28;19924;-61
2023/05/16 02:03:44;;;;;;;;;;;;;;;;;;5069194;28;19928;-61
2023/05/16 02:06:10;;;;;;;;;;;;;;;;;;5068691;28;19928;-61
2023/05/16 02:08:36;;;;;;;;;;;;;;;;;;5068555;28;20011;-62
2023/05/16 02:11:02;;;;;;;;;;;;;;;;;;5072411;28;20065;-61
2023/05/16 02:13:28;;;;;;;;;;;;;;;;;;5073483;28;20484;-61
2023/05/16 02:15:53;;;;;;;;;;;;;;;;;;5069776;28;20595;-61
2023/05/16 02:18:19;;;;;;;;;;;;;;;;;;5074200;28;19936;-61
2023/05/16 02:20:46;;;;;;;;;;;;;;;;;;5074435;28;19921;-60
2023/05/16 02:23:12;;;;;;;;;;;;;;;;;;5074144;28;20594;-61
2023/05/16 02:25:38;;;;;;;;;;;;;;;;;;5053724;28;19924;-61
2023/05/16 02:28:04;;;;;;;;;;;;;;;;;;5069866;28;20011;-61
2023/05/16 02:30:30;;;;;;;;;;;;;;;;;;5071520;28;20421;-61
2023/05/16 02:32:56;;;;;;;;;;;;;;;;;;5074440;28;20011;-61
2023/05/16 02:35:21;;;;;;;;;;;;;;;;;;5068899;28;19924;-61
2023/05/16 02:37:47;;;;;;;;;;;;;;;;;;5069404;28;20023;-61
2023/05/16 02:40:14;;;;;;;;;;;;;;;;;;5067033;28;19920;-61
2023/05/16 02:42:40;;;;;;;;;;;;;;;;;;5069830;28;20601;-61
2023/05/16 02:45:05;;;;;;;;;;;;;;;;;;5067282;28;19921;-61
2023/05/16 02:47:31;;;;;;;;;;;;;;;;;;5073689;28;19974;-61
2023/05/16 02:49:57;;;;;;;;;;;;;;;;;;5072459;28;19978;-61
2023/05/16 02:52:23;;;;;;;;;;;;;;;;;;5072881;28;20787;-61
2023/05/16 02:54:49;;;;;;;;;;;;;;;;;;5073931;28;19920;-61
2023/05/16 02:57:15;;;;;;;;;;;;;;;;;;5065003;28;19970;-61
2023/05/16 02:59:41;;;;;;;;;;;;;;;;;;5075687;28;19920;-61
2023/05/16 03:02:07;;;;;;;;;;;;;;;;;;5071214;28;20019;-61
2023/05/16 03:04:33;;;;;;;;;;;;;;;;;;5071754;28;19920;-60
2023/05/16 03:06:59;;;;;;;;;;;;;;;;;;5070992;28;19974;-60
2023/05/16 03:09:25;;;;;;;;;;;;;;;;;;5073275;28;19928;-60
2023/05/16 03:11:51;;;;;;;;;;;;;;;;;;5070876;28;19924;-61
2023/05/16 03:14:17;;;;;;;;;;;;;;;;;;5069517;28;19920;-61
2023/05/16 03:16:43;;;;;;;;;;;;;;;;;;5068473;28;19973;-61
2023/05/16 03:19:09;;;;;;;;;;;;;;;;;;5071293;28;20361;-61
2023/05/16 03:21:35;;;;;;;;;;;;;;;;;;5071495;28;19972;-61
2023/05/16 03:24:01;;;;;;;;;;;;;;;;;;5076132;28;19926;-61
2023/05/16 03:26:27;;;;;;;;;;;;;;;;;;5075116;28;19993;-61
2023/05/16 03:28:52;;;;;;;;;;;;;;;;;;5074660;28;19924;-61
2023/05/16 03:31:18;;;;;;;;;;;;;;;;;;5072481;28;19933;-61
2023/05/16 03:33:44;;;;;;;;;;;;;;;;;;5079589;28;19928;-61
2023/05/16 03:36:10;;;;;;;;;;;;;;;;;;5069739;28;20254;-61
2023/05/16 03:38:36;;;;;;;;;;;;;;;;;;5069632;28;19931;-61
2023/05/16 03:41:02;;;;;;;;;;;;;;;;;;5071352;28;19930;-61
2023/05/16 03:43:28;;;;;;;;;;;;;;;;;;5072793;28;19943;-61
2023/05/16 03:45:54;;;;;;;;;;;;;;;;;;5067724;28;20283;-61
2023/05/16 03:48:20;;;;;;;;;;;;;;;;;;5074052;28;19924;-62
2023/05/16 03:50:46;;;;;;;;;;;;;;;;;;5069032;28;19928;-62
2023/05/16 03:53:12;;;;;;;;;;;;;;;;;;5073871;28;19936;-61
2023/05/16 03:55:38;;;;;;;;;;;;;;;;;;5070183;28;19924;-62
2023/05/16 03:58:04;;;;;;;;;;;;;;;;;;5074189;28;20461;-61
2023/05/16 04:00:30;;;;;;;;;;;;;;;;;;5070151;28;19970;-61
2023/05/16 04:02:56;;;;;;;;;;;;;;;;;;5071644;28;20005;-61
2023/05/16 04:05:22;;;;;;;;;;;;;;;;;;5074248;28;19920;-61
2023/05/16 04:07:48;;;;;;;;;;;;;;;;;;5066463;28;20426;-61
2023/05/16 04:10:13;;;;;;;;;;;;;;;;;;5068166;28;19931;-61
2023/05/16 04:12:39;;;;;;;;;;;;;;;;;;5069345;28;19921;-61
2023/05/16 04:15:06;;;;;;;;;;;;;;;;;;5067518;28;19924;-61
2023/05/16 04:17:32;;;;;;;;;;;;;;;;;;5066028;28;19940;-61
2023/05/16 04:19:57;;;;;;;;;;;;;;;;;;5069387;28;20384;-61
2023/05/16 04:22:23;;;;;;;;;;;;;;;;;;5065386;28;19974;-61
2023/05/16 04:24:49;;;;;;;;;;;;;;;;;;5070229;28;19986;-61
2023/05/16 04:27:15;;;;;;;;;;;;;;;;;;5070194;28;19928;-61
2023/05/16 04:29:41;;;;;;;;;;;;;;;;;;5076639;28;19933;-61
2023/05/16 04:32:07;;;;;;;;;;;;;;;;;;5071721;28;20450;-61
2023/05/16 04:34:36;;;;;;;;;;;;;;;;;;5074405;28;19925;-61
2023/05/16 04:37:03;;;;;;;;;;;;;;;;;;5070047;28;20016;-62
2023/05/16 04:39:29;;;;;;;;;;;;;;;;;;5075745;28;20269;-62
2023/05/16 04:41:58;;;;;;;;;;;;;;;;;;5068450;28;19944;-60
2023/05/16 04:44:23;;;;;;;;;;;;;;;;;;5070609;28;19920;-60
2023/05/16 04:46:50;;;;;;;;;;;;;;;;;;5071378;28;19920;-61
2023/05/16 04:49:16;;;;;;;;;;;;;;;;;;5068717;28;19927;-61
2023/05/16 04:51:41;;;;;;;;;;;;;;;;;;5071052;28;19928;-61
2023/05/16 04:54:07;;;;;;;;;;;;;;;;;;5068862;28;19935;-61
2023/05/16 04:56:33;;;;;;;;;;;;;;;;;;5066105;28;20020;-61
2023/05/16 04:58:59;;;;;;;;;;;;;;;;;;5059484;28;20681;-61
2023/05/16 05:01:25;;;;;;;;;;;;;;;;;;5067009;28;20008;-61
2023/05/16 05:03:51;;;;;;;;;;;;;;;;;;5070504;28;19928;-61
2023/05/16 05:06:17;;;;;;;;;;;;;;;;;;5068887;28;20374;-61
2023/05/16 05:08:44;;;;;;;;;;;;;;;;;;5068910;28;19925;-61
2023/05/16 05:11:10;;;;;;;;;;;;;;;;;;5067602;28;19924;-61
2023/05/16 05:13:36;;;;;;;;;;;;;;;;;;5063499;28;20302;-60
2023/05/16 05:16:03;;;;;;;;;;;;;;;;;;5071536;28;19938;-61
2023/05/16 05:18:29;;;;;;;;;;;;;;;;;;5069953;28;19927;-61
2023/05/16 05:20:55;;;;;;;;;;;;;;;;;;5070576;28;19939;-61
2023/05/16 05:23:21;;;;;;;;;;;;;;;;;;5072207;28;19924;-61
2023/05/16 05:25:47;;;;;;;;;;;;;;;;;;5067259;28;20052;-60
2023/05/16 05:28:13;;;;;;;;;;;;;;;;;;5058260;28;19920;-62
2023/05/16 05:30:39;;;;;;;;;;;;;;;;;;5069926;28;19928;-61
2023/05/16 05:33:05;;;;;;;;;;;;;;;;;;5081576;28;20315;-61
2023/05/16 05:35:31;;;;;;;;;;;;;;;;;;5079526;28;19920;-61
2023/05/16 05:37:57;;;;;;;;;;;;;;;;;;5062296;28;19924;-61
2023/05/16 05:40:22;;;;;;;;;;;;;;;;;;5051788;28;19924;-62
2023/05/16 05:42:48;;;;;;;;;;;;;;;;;;5068516;28;19928;-62
2023/05/16 05:45:14;;;;;;;;;;;;;;;;;;5069937;28;20003;-61
2023/05/16 05:47:40;;;;;;;;;;;;;;;;;;5064434;28;19921;-62
2023/05/16 05:50:06;;;;;;;;;;;;;;;;;;5071224;28;19981;-62
2023/05/16 05:52:32;;;;;;;;;;;;;;;;;;5071782;28;19920;-62
2023/05/16 05:54:58;;;;;;;;;;;;;;;;;;5071798;28;19921;-62
2023/05/16 05:57:25;;;;;;;;;;;;;;;;;;5058313;28;19932;-62
2023/05/16 05:59:50;;;;;;;;;;;;;;;;;;5068744;28;19920;-62
2023/05/16 06:02:16;;;;;;;;;;;;;;;;;;5070227;28;20432;-61
2023/05/16 06:04:44;;;;;;;;;;;;;;;;;;5071166;28;19920;-62
2023/05/16 06:07:09;;;;;;;;;;;;;;;;;;5081806;28;19927;-62
2023/05/16 06:09:35;;;;;;;;;;;;;;;;;;5073730;28;19925;-61
2023/05/16 06:12:03;;;;;;;;;;;;;;;;;;5066296;28;20062;-61
2023/05/16 06:14:28;;;;;;;;;;;;;;;;;;5069297;28;20054;-62
2023/05/16 06:16:55;;;;;;;;;;;;;;;;;;5069649;28;20030;-62
2023/05/16 06:19:20;;;;;;;;;;;;;;;;;;5071640;28;20396;-62
2023/05/16 06:21:46;;;;;;;;;;;;;;;;;;5075195;28;19921;-65
2023/05/16 06:24:12;;;;;;;;;;;;;;;;;;5076307;28;19924;-62
2023/05/16 06:26:38;;;;;;;;;;;;;;;;;;5077748;28;20001;-61
2023/05/16 06:29:04;;;;;;;;;;;;;;;;;;5077166;28;19956;-62
2023/05/16 06:31:30;;;;;;;;;;;;;;;;;;5084617;28;20403;-61
2023/05/16 06:33:56;;;;;;;;;;;;;;;;;;5075110;28;19920;-61
2023/05/16 06:36:22;;;;;;;;;;;;;;;;;;5076965;28;19924;-61
2023/05/16 06:38:48;;;;;;;;;;;;;;;;;;5075760;28;19924;-61
2023/05/16 06:41:14;;;;;;;;;;;;;;;;;;5074474;28;20472;-61
2023/05/16 06:43:40;;;;;;;;;;;;;;;;;;5066779;28;19920;-61
2023/05/16 06:46:06;;;;;;;;;;;;;;;;;;5072871;28;19924;-62
2023/05/16 06:48:32;;;;;;;;;;;;;;;;;;5072398;28;20035;-62
2023/05/16 06:50:58;;;;;;;;;;;;;;;;;;5072281;28;19931;-62
2023/05/16 06:53:24;;;;;;;;;;;;;;;;;;5055261;28;19920;-62
2023/05/16 06:55:50;;;;;;;;;;;;;;;;;;5065950;28;19939;-61
2023/05/16 06:58:16;;;;;;;;;;;;;;;;;;5068923;28;19966;-62
2023/05/16 07:00:42;;;;;;;;;;;;;;;;;;5086711;28;20326;-62
2023/05/16 07:03:08;;;;;;;;;;;;;;;;;;5085501;28;19932;-62
2023/05/16 07:05:35;;;;;;;;;;;;;;;;;;5071764;28;19928;-60
2023/05/16 07:08:01;;;;;;;;;;;;;;;;;;5071590;28;19921;-61
2023/05/16 07:10:27;;;;;;;;;;;;;;;;;;5064477;28;20562;-62
2023/05/16 07:12:53;;;;;;;;;;;;;;;;;;5067661;28;19928;-62
2023/05/16 07:15:19;;;;;;;;;;;;;;;;;;5071241;28;19921;-62
2023/05/16 07:17:45;;;;;;;;;;;;;;;;;;5070006;28;19932;-61
2023/05/16 07:20:13;;;;;;;;;;;;;;;;;;5071317;28;20330;-61
2023/05/16 07:22:39;;;;;;;;;;;;;;;;;;5073014;28;19921;-62
2023/05/16 07:25:05;;;;;;;;;;;;;;;;;;5071960;28;20572;-61
2023/05/16 07:27:31;;;;;;;;;;;;;;;;;;5068366;28;20820;-61
2023/05/16 07:29:57;;;;;;;;;;;;;;;;;;5071105;28;19936;-60
2023/05/16 07:32:23;;;;;;;;;;;;;;;;;;5070895;28;19920;-60
2023/05/16 07:34:49;;;;;;;;;;;;;;;;;;5069619;28;19921;-60
2023/05/16 07:37:15;;;;;;;;;;;;;;;;;;5071880;28;19931;-61
2023/05/16 07:39:41;;;;;;;;;;;;;;;;;;5069350;28;19929;-61
2023/05/16 07:42:07;;;;;;;;;;;;;;;;;;5065453;28;19930;-60
2023/05/16 07:44:33;;;;;;;;;;;;;;;;;;5067152;28;19921;-60
2023/05/16 07:46:59;;;;;;;;;;;;;;;;;;5072753;28;19924;-61
2023/05/16 07:49:25;;;;;;;;;;;;;;;;;;5088083;22;19927;-63
2023/05/16 07:51:51;;;;;;;;;;;;;;;;;;5069226;28;19936;-64
2023/05/16 07:54:17;;;;;;;;;;;;;;;;;;5072764;28;19925;-64
2023/05/16 07:56:43;;;;;;;;;;;;;;;;;;5072057;28;20277;-64
2023/05/16 07:59:09;;;;;;;;;;;;;;;;;;5069783;28;19986;-64
2023/05/16 08:01:34;;;;;;;;;;;;;;;;;;5072171;28;20456;-63
2023/05/16 08:04:01;;;;;;;;;;;;;;;;;;5070098;28;19928;-64
2023/05/16 08:06:28;;;;;;;;;;;;;;;;;;5079292;28;19929;-64
2023/05/16 08:08:55;;;;;;;;;;;;;;;;;;5070695;28;19985;-64
2023/05/16 08:11:21;;;;;;;;;;;;;;;;;;5072745;28;20015;-64
2023/05/16 08:13:47;;;;;;;;;;;;;;;;;;5067888;28;20293;-64
2023/05/16 08:16:13;;;;;;;;;;;;;;;;;;5064558;28;20042;-65
2023/05/16 08:18:39;;;;;;;;;;;;;;;;;;5062573;28;19920;-64
2023/05/16 08:21:05;;;;;;;;;;;;;;;;;;5067820;28;19956;-64
2023/05/16 08:23:31;;;;;;;;;;;;;;;;;;5083337;28;19969;-64
2023/05/16 08:25:57;;;;;;;;;;;;;;;;;;5083470;28;19920;-64
2023/05/16 08:28:23;;;;;;;;;;;;;;;;;;5073017;28;19920;-64
2023/05/16 08:30:49;;;;;;;;;;;;;;;;;;5071795;28;19928;-64
2023/05/16 08:33:15;;;;;;;;;;;;;;;;;;5071814;28;19931;-64
2023/05/16 08:35:41;;;;;;;;;;;;;;;;;;5069604;28;19935;-64
2023/05/16 08:38:07;;;;;;;;;;;;;;;;;;5050892;28;20431;-64
2023/05/16 08:40:33;;;;;;;;;;;;;;;;;;5068802;28;19928;-64
2023/05/16 08:42:59;;;;;;;;;;;;;;;;;;5071929;28;19924;-64
2023/05/16 08:45:25;;;;;;;;;;;;;;;;;;5067314;28;19920;-65
2023/05/16 08:47:51;;;;;;;;;;;;;;;;;;5068222;28;19970;-64
2023/05/16 08:50:17;;;;;;;;;;;;;;;;;;5064676;28;20401;-66
2023/05/16 08:52:43;;;;;;;;;;;;;;;;;;5060055;28;19924;-64
2023/05/16 08:55:09;;;;;;;;;;;;;;;;;;5067508;28;19927;-65
2023/05/16 08:57:35;;;;;;;;;;;;;;;;;;5079352;28;20406;-64
2023/05/16 09:00:06;;;;;;;;;;;;;;;;;;5064863;28;19931;-64
2023/05/16 09:02:32;;;;;;;;;;;;;;;;;;5063009;28;19924;-64
2023/05/16 09:04:58;;;;;;;;;;;;;;;;;;5066802;28;20536;-64
2023/05/16 09:07:24;;;;;;;;;;;;;;;;;;5072025;28;19921;-64
2023/05/16 09:09:49;;;;;;;;;;;;;;;;;;5070987;28;19933;-63
2023/05/16 09:12:15;;;;;;;;;;;;;;;;;;5070520;28;19928;-64
2023/05/16 09:14:44;;;;;;;;;;;;;;;;;;5065444;28;21262;-65
2023/05/16 09:17:10;;;;;;;;;;;;;;;;;;5069493;28;20239;-64
2023/05/16 09:19:37;;;;;;;;;;;;;;;;;;5069206;28;19920;-65
2023/05/16 09:22:02;;;;;;;;;;;;;;;;;;5066084;28;20584;-65
2023/05/16 09:24:28;;;;;;;;;;;;;;;;;;5066039;28;19971;-64
2023/05/16 09:26:54;;;;;;;;;;;;;;;;;;5066447;28;19974;-66
2023/05/16 09:29:21;;;;;;;;;;;;;;;;;;5072986;28;19939;-66
2023/05/16 09:31:46;;;;;;;;;;;;;;;;;;5069796;28;20015;-66
2023/05/16 09:34:12;;;;;;;;;;;;;;;;;;5068751;28;20011;-61
2023/05/16 09:36:38;;;;;;;;;;;;;;;;;;5064472;28;19931;-63
2023/05/16 09:39:04;;;;;;;;;;;;;;;;;;5063344;28;19946;-62
2023/05/16 09:41:30;;;;;;;;;;;;;;;;;;5072329;28;19928;-61
2023/05/16 09:43:56;;;;;;;;;;;;;;;;;;5069890;28;20414;-61
2023/05/16 09:46:22;;;;;;;;;;;;;;;;;;5066920;28;19970;-61
2023/05/16 09:48:48;;;;;;;;;;;;;;;;;;5067719;28;19928;-62
2023/05/16 09:51:14;;;;;;;;;;;;;;;;;;5060359;28;19970;-62
2023/05/16 09:53:40;;;;;;;;;;;;;;;;;;5063790;28;19921;-62
2023/05/16 09:56:06;;;;;;;;;;;;;;;;;;5067237;28;19924;-61
2023/05/16 09:58:33;;;;;;;;;;;;;;;;;;5068141;28;20417;-61
2023/05/16 10:00:59;;;;;;;;;;;;;;;;;;5066860;28;20377;-61
2023/05/16 10:03:25;;;;;;;;;;;;;;;;;;5072952;28;19977;-60
2023/05/16 10:05:51;;;;;;;;;;;;;;;;;;5072207;28;19920;-60
2023/05/16 10:08:17;;;;;;;;;;;;;;;;;;5070042;28;19928;-61
2023/05/16 10:10:43;;;;;;;;;;;;;;;;;;5070640;28;19928;-61
2023/05/16 10:13:09;;;;;;;;;;;;;;;;;;5072063;28;19967;-61
2023/05/16 10:15:35;;;;;;;;;;;;;;;;;;5072079;28;20011;-62
2023/05/16 10:18:02;;;;;;;;;;;;;;;;;;5066386;28;19970;-62
2023/05/16 10:20:28;;;;;;;;;;;;;;;;;;5074582;28;20365;-62
2023/05/16 10:22:54;;;;;;;;;;;;;;;;;;5069087;28;19969;-62
2023/05/16 10:25:20;;;;;;;;;;;;;;;;;;5073524;28;20366;-62
2023/05/16 10:27:46;;;;;;;;;;;;;;;;;;5075063;28;19925;-61
2023/05/16 10:30:12;;;;;;;;;;;;;;;;;;5072574;28;19924;-62
2023/05/16 10:32:38;;;;;;;;;;;;;;;;;;5070144;28;19932;-62
2023/05/16 10:35:04;;;;;;;;;;;;;;;;;;5068881;28;19966;-61
2023/05/16 10:37:30;;;;;;;;;;;;;;;;;;5071410;28;19924;-61
2023/05/16 10:39:56;;;;;;;;;;;;;;;;;;5071256;28;19921;-61
2023/05/16 10:42:21;;;;;;;;;;;;;;;;;;5072086;28;19920;-61
2023/05/16 10:44:47;;;;;;;;;;;;;;;;;;5070393;28;20294;-62
2023/05/16 10:47:13;;;;;;;;;;;;;;;;;;5069800;28;19925;-62
2023/05/16 10:49:39;;;;;;;;;;;;;;;;;;5074054;28;19986;-62
2023/05/16 10:52:05;;;;;;;;;;;;;;;;;;5070931;28;19931;-62
2023/05/16 10:54:31;;;;;;;;;;;;;;;;;;5072438;28;19952;-62
2023/05/16 10:56:57;;;;;;;;;;;;;;;;;;5077307;28;20268;-62
2023/05/16 10:59:27;;;;;;;;;;;;;;;;;;5069357;28;21446;-62
2023/05/16 11:01:53;;;;;;;;;;;;;;;;;;5075851;28;20007;-62
2023/05/16 11:04:19;;;;;;;;;;;;;;;;;;5070325;28;20011;-61
2023/05/16 11:06:45;;;;;;;;;;;;;;;;;;5076801;28;19963;-62
2023/05/16 11:09:12;;;;;;;;;;;;;;;;;;5074109;28;19921;-62
2023/05/16 11:11:38;;;;;;;;;;;;;;;;;;5069912;28;20007;-62
2023/05/16 11:14:04;;;;;;;;;;;;;;;;;;5073513;28;20015;-62
2023/05/16 11:16:30;;;;;;;;;;;;;;;;;;5069179;28;20294;-62
2023/05/16 11:18:56;;;;;;;;;;;;;;;;;;5068975;28;19935;-61
2023/05/16 11:21:22;;;;;;;;;;;;;;;;;;5066301;28;19925;-62
2023/05/16 11:23:47;;;;;;;;;;;;;;;;;;5071124;28;20492;-62
2023/05/16 11:26:13;;;;;;;;;;;;;;;;;;5069614;28;19924;-61
2023/05/16 11:28:39;;;;;;;;;;;;;;;;;;5071375;28;19921;-61
2023/05/16 11:31:05;;;;;;;;;;;;;;;;;;5073433;28;19921;-60
2023/05/16 11:33:34;;;;;;;;;;;;;;;;;;5073237;28;19931;-60
2023/05/16 11:36:01;;;;;;;;;;;;;;;;;;5073372;28;19978;-62
2023/05/16 11:38:27;;;;;;;;;;;;;;;;;;5073011;28;19924;-61
2023/05/16 11:40:53;;;;;;;;;;;;;;;;;;5071381;28;20278;-61
2023/05/16 11:43:19;;;;;;;;;;;;;;;;;;5072300;28;19928;-61
2023/05/16 11:45:46;;;;;;;;;;;;;;;;;;5068574;28;20433;-61
2023/05/16 11:48:12;;;;;;;;;;;;;;;;;;5072543;28;20007;-61
2023/05/16 11:50:37;;;;;;;;;;;;;;;;;;5069692;28;20055;-60
2023/05/16 11:53:03;;;;;;;;;;;;;;;;;;5074759;28;20389;-61
2023/05/16 11:55:29;;;;;;;;;;;;;;;;;;5072526;28;20401;-60
2023/05/16 11:57:56;;;;;;;;;;;;;;;;;;5073039;28;19933;-60
2023/05/16 12:00:23;;;;;;;;;;;;;;;;;;5055139;28;20017;-60
2023/05/16 12:02:49;;;;;;;;;;;;;;;;;;5072660;28;19924;-60
2023/05/16 12:05:15;;;;;;;;;;;;;;;;;;5073558;28;19920;-60
2023/05/16 12:07:41;;;;;;;;;;;;;;;;;;5069554;28;20764;-60
2023/05/16 12:10:07;;;;;;;;;;;;;;;;;;5070712;28;19935;-60
2023/05/16 12:12:33;;;;;;;;;;;;;;;;;;5072538;28;19920;-60
2023/05/16 12:14:59;;;;;;;;;;;;;;;;;;5072514;28;19921;-60
2023/05/16 12:17:25;;;;;;;;;;;;;;;;;;5067040;28;19921;-60
2023/05/16 12:19:51;;;;;;;;;;;;;;;;;;5070357;28;19994;-60
2023/05/16 12:22:17;;;;;;;;;;;;;;;;;;5066717;28;19928;-61
2023/05/16 12:24:43;;;;;;;;;;;;;;;;;;5049139;28;19921;-60
2023/05/16 12:27:09;;;;;;;;;;;;;;;;;;5068229;28;19978;-60
2023/05/16 12:29:35;;;;;;;;;;;;;;;;;;5074212;28;20347;-60
2023/05/16 12:32:01;;;;;;;;;;;;;;;;;;5070832;28;19963;-60
2023/05/16 12:34:27;;;;;;;;;;;;;;;;;;5072589;28;19966;-60
2023/05/16 12:36:53;;;;;;;;;;;;;;;;;;5072507;28;19972;-60
2023/05/16 12:39:19;;;;;;;;;;;;;;;;;;5083502;28;19966;-61
2023/05/16 12:41:45;;;;;;;;;;;;;;;;;;5072616;28;19921;-61
2023/05/16 12:44:16;;;;;;;;;;;;;;;;;;5072626;28;19975;-60
2023/05/16 12:46:41;;;;;;;;;;;;;;;;;;5071647;28;19921;-61
2023/05/16 12:49:08;;;;;;;;;;;;;;;;;;5061940;28;19995;-61
2023/05/16 12:51:34;;;;;;;;;;;;;;;;;;5063716;28;19936;-60
2023/05/16 12:54:00;;;;;;;;;;;;;;;;;;5068927;28;19921;-61
2023/05/16 12:56:26;;;;;;;;;;;;;;;;;;5077264;28;20038;-61
2023/05/16 12:58:52;;;;;;;;;;;;;;;;;;5068100;28;20239;-61
2023/05/16 13:01:18;;;;;;;;;;;;;;;;;;5056839;28;20050;-61
2023/05/16 13:03:44;;;;;;;;;;;;;;;;;;5062216;28;19920;-60
2023/05/16 13:06:10;;;;;;;;;;;;;;;;;;5069982;28;20305;-60
2023/05/16 13:08:36;;;;;;;;;;;;;;;;;;5069310;28;19920;-59
2023/05/16 13:11:02;;;;;;;;;;;;;;;;;;5054379;28;20377;-59
2023/05/16 13:13:28;;;;;;;;;;;;;;;;;;5070887;28;19927;-60
2023/05/16 13:15:54;;;;;;;;;;;;;;;;;;5065668;28;19931;-60
2023/05/16 13:18:20;;;;;;;;;;;;;;;;;;5062155;28;19927;-60
2023/05/16 13:20:46;;;;;;;;;;;;;;;;;;5055796;28;19920;-60
2023/05/16 13:23:12;;;;;;;;;;;;;;;;;;5066774;28;19935;-60
2023/05/16 13:25:38;;;;;;;;;;;;;;;;;;5068655;28;19925;-61
2023/05/16 13:28:03;;;;;;;;;;;;;;;;;;5070971;28;19920;-60
2023/05/16 13:30:29;;;;;;;;;;;;;;;;;;5091355;28;19924;-61
2023/05/16 13:32:55;;;;;;;;;;;;;;;;;;5072178;28;19931;-61
2023/05/16 13:35:21;;;;;;;;;;;;;;;;;;5071672;28;19960;-61
2023/05/16 13:37:47;;;;;;;;;;;;;;;;;;5061751;28;19960;-61
2023/05/16 13:40:13;;;;;;;;;;;;;;;;;;5059795;28;20341;-61
2023/05/16 13:42:39;;;;;;;;;;;;;;;;;;5062913;28;20785;-62
2023/05/16 13:45:05;;;;;;;;;;;;;;;;;;5061893;28;19921;-62
2023/05/16 13:47:31;;;;;;;;;;;;;;;;;;5064957;28;19974;-61
2023/05/16 13:49:58;;;;;;;;;;;;;;;;;;5066937;28;19924;-62
2023/05/16 13:52:24;;;;;;;;;;;;;;;;;;5066349;28;19921;-62
2023/05/16 13:54:50;;;;;;;;;;;;;;;;;;5066754;28;19970;-62
2023/05/16 13:57:16;;;;;;;;;;;;;;;;;;5068249;28;19924;-62
2023/05/16 13:59:42;;;;;;;;;;;;;;;;;;5066251;28;19938;-62
2023/05/16 14:02:08;;;;;;;;;;;;;;;;;;5066423;28;20374;-62
2023/05/16 14:04:34;;;;;;;;;;;;;;;;;;5067256;28;19973;-60
2023/05/16 14:07:00;;;;;;;;;;;;;;;;;;5067162;28;19924;-60
2023/05/16 14:09:26;;;;;;;;;;;;;;;;;;5066890;28;19927;-62
2023/05/16 14:11:52;;;;;;;;;;;;;;;;;;5064437;28;19924;-62
2023/05/16 14:14:18;;;;;;;;;;;;;;;;;;5064442;28;19935;-62
2023/05/16 14:16:44;;;;;;;;;;;;;;;;;;5069175;28;19925;-62
2023/05/16 14:19:10;;;;;;;;;;;;;;;;;;5067710;28;19920;-62
2023/05/16 14:21:36;;;;;;;;;;;;;;;;;;5061025;28;19959;-62
2023/05/16 14:24:02;;;;;;;;;;;;;;;;;;5065864;28;20336;-62
2023/05/16 14:26:28;;;;;;;;;;;;;;;;;;5068212;28;19966;-62
2023/05/16 14:28:54;;;;;;;;;;;;;;;;;;5069613;28;19921;-62
2023/05/16 14:31:20;;;;;;;;;;;;;;;;;;5067648;28;19933;-62
2023/05/16 14:33:46;;;;;;;;;;;;;;;;;;5070441;28;20285;-62
2023/05/16 14:36:12;;;;;;;;;;;;;;;;;;5066091;28;20015;-62
2023/05/16 14:38:38;;;;;;;;;;;;;;;;;;5071642;28;19943;-62
2023/05/16 14:41:04;;;;;;;;;;;;;;;;;;5075738;28;19924;-62
2023/05/16 14:43:30;;;;;;;;;;;;;;;;;;5074651;28;19921;-63
2023/05/16 14:45:56;;;;;;;;;;;;;;;;;;5071524;28;20264;-60
2023/05/16 14:48:22;;;;;;;;;;;;;;;;;;5072844;28;20278;-60
2023/05/16 14:50:48;;;;;;;;;;;;;;;;;;5073725;28;19986;-61
2023/05/16 14:53:14;;;;;;;;;;;;;;;;;;5072932;28;19986;-61
2023/05/16 14:55:40;;;;;;;;;;;;;;;;;;5074259;28;19920;-60
2023/05/16 14:58:07;;;;;;;;;;;;;;;;;;5072159;28;20409;-61
2023/05/16 15:00:33;;;;;;;;;;;;;;;;;;5067307;28;19920;-62
2023/05/16 15:02:59;;;;;;;;;;;;;;;;;;5064164;28;20058;-61
2023/05/16 15:05:25;;;;;;;;;;;;;;;;;;5072396;28;19947;-64
2023/05/16 15:07:51;;;;;;;;;;;;;;;;;;5049289;28;19921;-64
2023/05/16 15:10:17;;;;;;;;;;;;;;;;;;5070570;28;19928;-65
2023/05/16 15:12:43;;;;;;;;;;;;;;;;;;5070184;28;19920;-63
2023/05/16 15:15:12;;;;;;;;;;;;;;;;;;5074752;28;19936;-64
2023/05/16 15:17:38;;;;;;;;;;;;;;;;;;5074043;28;19920;-64
2023/05/16 15:20:04;;;;;;;;;;;;;;;;;;5072739;28;19943;-65
2023/05/16 15:22:30;;;;;;;;;;;;;;;;;;5067304;28;19924;-65
2023/05/16 15:24:56;;;;;;;;;;;;;;;;;;5069342;28;19929;-65
2023/05/16 15:27:22;;;;;;;;;;;;;;;;;;5070363;28;20533;-65
2023/05/16 15:29:47;;;;;;;;;;;;;;;;;;5073362;28;19924;-65
2023/05/16 15:32:14;;;;;;;;;;;;;;;;;;5071137;28;19924;-65
2023/05/16 15:34:40;;;;;;;;;;;;;;;;;;5079864;28;19920;-65
2023/05/16 15:37:06;;;;;;;;;;;;;;;;;;5068438;28;19927;-65
2023/05/16 15:39:32;;;;;;;;;;;;;;;;;;5071486;28;19991;-65
2023/05/16 15:41:58;;;;;;;;;;;;;;;;;;5071129;28;19947;-65
2023/05/16 15:44:23;;;;;;;;;;;;;;;;;;5070545;28;19921;-65
2023/05/16 15:46:50;;;;;;;;;;;;;;;;;;5074478;28;20300;-64
2023/05/16 15:49:16;;;;;;;;;;;;;;;;;;5067635;28;19978;-65
2023/05/16 15:51:41;;;;;;;;;;;;;;;;;;5073188;28;19925;-64
2023/05/16 15:54:08;;;;;;;;;;;;;;;;;;5062620;28;20388;-65
2023/05/16 15:56:34;;;;;;;;;;;;;;;;;;5059972;28;20867;-65
2023/05/16 15:59:00;;;;;;;;;;;;;;;;;;5070054;28;19977;-64
2023/05/16 16:01:26;;;;;;;;;;;;;;;;;;5068200;28;19920;-65
2023/05/16 16:03:51;;;;;;;;;;;;;;;;;;5059882;28;19921;-65
2023/05/16 16:06:17;;;;;;;;;;;;;;;;;;5070030;28;19928;-65
2023/05/16 16:08:44;;;;;;;;;;;;;;;;;;5069362;28;20354;-65
2023/05/16 16:11:10;;;;;;;;;;;;;;;;;;5070240;28;19932;-65
2023/05/16 16:13:36;;;;;;;;;;;;;;;;;;5051726;28;19920;-64
2023/05/16 16:16:02;;;;;;;;;;;;;;;;;;5068159;28;19927;-65
2023/05/16 16:18:28;;;;;;;;;;;;;;;;;;5076401;28;19923;-65
2023/05/16 16:20:55;;;;;;;;;;;;;;;;;;5087967;28;20281;-65
2023/05/16 16:23:21;;;;;;;;;;;;;;;;;;5069533;28;20377;-65
2023/05/16 16:25:46;;;;;;;;;;;;;;;;;;5069959;28;19926;-66
2023/05/16 16:28:12;;;;;;;;;;;;;;;;;;5071952;28;19946;-65
2023/05/16 16:30:38;;;;;;;;;;;;;;;;;;5068715;28;19983;-64
2023/05/16 16:33:04;;;;;;;;;;;;;;;;;;5067585;28;20336;-65
2023/05/16 16:35:30;;;;;;;;;;;;;;;;;;5072505;28;19927;-65
2023/05/16 16:37:56;;;;;;;;;;;;;;;;;;5067608;28;19927;-65